Time;durP1;ratioP1;P1;durP2;ratioP2;P2;SDS_P1;SDS_P2;PMS_P1;PMS_P2;Temp;Humidity;BMP_temperature;BMP_pressure;BME280_temperature;BME280_humidity;BME280_pressure;Samples;Min_cycle;Max_cycle;Signal;HPM_P1;HPM_P2
2024/03/05 00:01:37;;;;;;;36.33;32.87;;;11.30;32.00;;;;;;4995703;28;20239;-79
2024/03/05 00:04:03;;;;;;;34.63;31.63;;;11.30;32.00;;;;;;4996664;28;20201;-76
2024/03/05 00:06:29;;;;;;;36.27;32.97;;;11.30;32.10;;;;;;4995815;28;20583;-79
2024/03/05 00:08:55;;;;;;;36.07;32.77;;;11.30;32.50;;;;;;4997195;28;20457;-79
2024/03/05 00:11:20;;;;;;;36.63;33.20;;;11.30;32.50;;;;;;4995236;28;20190;-80
2024/03/05 00:13:46;;;;;;;35.90;32.70;;;11.20;32.50;;;;;;4998383;28;20227;-78
2024/03/05 00:16:11;;;;;;;33.80;30.60;;;11.30;32.30;;;;;;5016691;28;20199;-79
2024/03/05 00:18:37;;;;;;;36.43;33.23;;;11.30;32.10;;;;;;5017157;28;20193;-79
2024/03/05 00:21:02;;;;;;;34.70;31.60;;;11.30;32.00;;;;;;5017257;28;20196;-79
2024/03/05 00:23:28;;;;;;;37.10;33.70;;;11.30;31.90;;;;;;5015901;28;20573;-78
2024/03/05 00:25:53;;;;;;;36.80;33.50;;;11.40;31.60;;;;;;5013923;28;20718;-78
2024/03/05 00:28:19;;;;;;;34.83;31.73;;;11.30;31.70;;;;;;5015473;28;20181;-79
2024/03/05 00:30:45;;;;;;;37.10;33.83;;;11.30;31.80;;;;;;5014267;28;20185;-78
2024/03/05 00:33:10;;;;;;;34.23;31.13;;;11.30;32.50;;;;;;5015435;28;20274;-79
2024/03/05 00:35:36;;;;;;;34.60;31.37;;;11.30;31.70;;;;;;5014943;28;20455;-79
2024/03/05 00:38:01;;;;;;;36.10;32.70;;;11.30;31.50;;;;;;5016016;28;20411;-78
2024/03/05 00:40:29;;;;;;;36.40;33.27;;;11.30;31.70;;;;;;5014065;28;20657;-79
2024/03/05 00:42:54;;;;;;;34.63;31.23;;;11.40;31.80;;;;;;5011330;28;20221;-77
2024/03/05 00:45:21;;;;;;;33.20;30.17;;;11.40;31.40;;;;;;5004521;28;20441;-79
2024/03/05 00:47:47;;;;;;;33.67;30.70;;;11.40;31.30;;;;;;4996181;28;20736;-78
2024/03/05 00:50:13;;;;;;;35.57;32.27;;;11.40;31.20;;;;;;4994300;28;20437;-79
2024/03/05 00:52:39;;;;;;;35.63;32.50;;;11.40;31.00;;;;;;4993956;28;20182;-80
2024/03/05 00:55:08;;;;;;;33.33;30.23;;;11.40;31.10;;;;;;4994847;28;20948;-79
2024/03/05 00:57:34;;;;;;;33.30;30.30;;;11.40;31.40;;;;;;4994638;28;20440;-79
2024/03/05 01:00:00;;;;;;;34.53;31.53;;;11.40;31.20;;;;;;4994053;28;20445;-79
2024/03/05 01:02:26;;;;;;;34.27;31.17;;;11.40;31.00;;;;;;4995468;28;20960;-79
2024/03/05 01:04:52;;;;;;;35.50;32.30;;;11.40;30.60;;;;;;4993933;28;20252;-78
2024/03/05 01:07:18;;;;;;;35.07;31.80;;;11.40;31.10;;;;;;4995999;28;20186;-79
2024/03/05 01:09:44;;;;;;;32.43;29.70;;;11.40;31.10;;;;;;4993748;28;20425;-80
2024/03/05 01:12:10;;;;;;;34.13;31.10;;;11.40;31.00;;;;;;5003008;28;20328;-79
2024/03/05 01:14:35;;;;;;;33.47;30.80;;;11.40;31.50;;;;;;4995522;28;20523;-78
2024/03/05 01:17:04;;;;;;;33.30;30.30;;;11.40;30.70;;;;;;5010337;28;20198;-78
2024/03/05 01:19:30;;;;;;;33.90;30.80;;;11.50;30.60;;;;;;4993930;28;20277;-78
2024/03/05 01:21:58;;;;;;;35.30;32.07;;;11.40;30.50;;;;;;4994150;28;20511;-78
2024/03/05 01:24:25;;;;;;;33.37;30.33;;;11.30;30.80;;;;;;4995556;28;20479;-78
2024/03/05 01:26:51;;;;;;;32.97;30.10;;;11.10;31.90;;;;;;4994793;28;20449;-78
2024/03/05 01:29:17;;;;;;;35.07;31.87;;;11.00;32.40;;;;;;5008669;28;20928;-78
2024/03/05 01:31:44;;;;;;;33.47;30.57;;;11.10;32.50;;;;;;5012746;28;20189;-78
2024/03/05 01:34:10;;;;;;;33.23;30.43;;;11.20;32.50;;;;;;5013329;28;20462;-79
2024/03/05 01:36:36;;;;;;;33.03;30.20;;;11.20;32.50;;;;;;5013167;28;20460;-78
2024/03/05 01:39:03;;;;;;;34.03;31.13;;;11.30;31.70;;;;;;5014433;28;20428;-76
2024/03/05 01:41:28;;;;;;;33.60;30.77;;;11.30;31.10;;;;;;4998845;28;20661;-78
2024/03/05 01:43:54;;;;;;;33.70;30.90;;;11.30;31.20;;;;;;4994832;28;20459;-78
2024/03/05 01:46:19;;;;;;;34.17;31.07;;;11.40;31.10;;;;;;4994645;28;20676;-79
2024/03/05 01:48:45;;;;;;;35.30;32.20;;;11.40;30.80;;;;;;4995434;28;20602;-79
2024/03/05 01:51:14;;;;;;;34.07;31.17;;;11.30;30.80;;;;;;4993520;28;20201;-79
2024/03/05 01:53:41;;;;;;;34.80;31.70;;;11.30;30.80;;;;;;5003578;28;20205;-79
2024/03/05 01:56:07;;;;;;;34.50;31.40;;;11.30;31.20;;;;;;4995660;28;20436;-80
2024/03/05 01:58:34;;;;;;;35.20;32.17;;;11.30;31.00;;;;;;5011677;28;20428;-79
2024/03/05 02:01:02;;;;;;;33.90;30.60;;;11.30;31.10;;;;;;4996740;28;20201;-79
2024/03/05 02:03:28;;;;;;;34.63;31.70;;;11.30;31.30;;;;;;4998278;28;20480;-79
2024/03/05 02:05:59;;;;;;;36.40;32.83;;;11.30;31.40;;;;;;4998575;28;20428;-78
2024/03/05 02:08:26;;;;;;;33.80;30.80;;;11.30;31.40;;;;;;4997738;28;20251;-77
2024/03/05 02:10:52;;;;;;;36.20;32.60;;;11.30;31.40;;;;;;4999035;28;20785;-79
2024/03/05 02:13:17;;;;;;;36.43;33.17;;;11.40;31.30;;;;;;4996864;28;20464;-78
2024/03/05 02:15:43;;;;;;;34.63;31.53;;;11.30;31.90;;;;;;4998605;28;20197;-80
2024/03/05 02:18:09;;;;;;;36.47;33.03;;;11.20;32.50;;;;;;4997143;28;20194;-79
2024/03/05 02:20:35;;;;;;;34.50;31.00;;;11.30;32.00;;;;;;4998769;28;20448;-79
2024/03/05 02:23:02;;;;;;;36.93;33.80;;;11.30;32.30;;;;;;4997154;28;20728;-78
2024/03/05 02:25:28;;;;;;;34.00;31.03;;;11.30;32.40;;;;;;4997920;28;20201;-79
2024/03/05 02:27:54;;;;;;;33.97;30.57;;;11.20;32.50;;;;;;4996953;28;20475;-77
2024/03/05 02:30:20;;;;;;;35.73;32.50;;;11.20;32.80;;;;;;5002669;28;20801;-79
2024/03/05 02:32:46;;;;;;;35.97;32.63;;;11.20;32.50;;;;;;5000456;28;20204;-78
2024/03/05 02:35:12;;;;;;;35.50;32.20;;;11.30;32.60;;;;;;4998879;28;20436;-79
2024/03/05 02:37:41;;;;;;;36.50;33.00;;;11.40;32.80;;;;;;5005376;28;20440;-79
2024/03/05 02:40:13;;;;;;;33.93;30.83;;;11.50;32.30;;;;;;5005155;28;20240;-79
2024/03/05 02:42:40;;;;;;;38.00;34.50;;;11.50;31.70;;;;;;5011857;28;20666;-79
2024/03/05 02:45:07;;;;;;;36.80;33.20;;;11.50;31.60;;;;;;5007952;28;20424;-78
2024/03/05 02:47:33;;;;;;;38.87;35.33;;;11.50;31.70;;;;;;5015985;28;20432;-79
2024/03/05 02:49:59;;;;;;;33.50;30.33;;;11.40;32.70;;;;;;5017326;28;20486;-79
2024/03/05 02:52:25;;;;;;;33.93;31.00;;;11.30;32.60;;;;;;5016036;28;20761;-79
2024/03/05 02:54:51;;;;;;;35.03;31.83;;;11.10;32.90;;;;;;5015884;28;20755;-78
2024/03/05 02:57:17;;;;;;;34.50;31.47;;;11.00;33.80;;;;;;5017237;28;20516;-79
2024/03/05 02:59:42;;;;;;;34.90;31.67;;;11.00;34.50;;;;;;5018562;28;20461;-79
2024/03/05 03:02:08;;;;;;;34.00;30.90;;;10.90;34.50;;;;;;5017852;28;20257;-78
2024/03/05 03:04:34;;;;;;;34.63;31.73;;;10.90;34.80;;;;;;5016781;28;20267;-79
2024/03/05 03:06:59;;;;;;;33.93;30.73;;;10.90;34.90;;;;;;5016999;28;20620;-79
2024/03/05 03:09:25;;;;;;;35.07;32.00;;;10.90;35.30;;;;;;5016842;28;20241;-78
2024/03/05 03:11:50;;;;;;;35.33;31.93;;;10.90;35.30;;;;;;5016859;28;20231;-79
2024/03/05 03:14:36;;;;;;;34.83;31.77;;;10.90;35.90;;;;;;5032457;23;20229;-86
2024/03/05 06:49:29;;;;;;;35.97;32.47;;;10.70;37.20;;;;;;4994457;28;20416;-82
2024/03/05 06:56:39;;;;;;;33.23;30.23;;;10.90;36.50;;;;;;4999273;28;20436;-83
2024/03/05 06:57:25;;;;;;;42.07;38.23;;;11.10;34.80;;;;;;4982941;28;20421;-85
2024/03/05 06:59:51;;;;;;;37.00;33.20;;;11.10;35.30;;;;;;4982071;28;20796;-83
2024/03/05 07:02:16;;;;;;;34.77;31.53;;;11.10;35.00;;;;;;4992386;28;20479;-84
2024/03/05 07:04:43;;;;;;;34.80;31.70;;;11.20;34.70;;;;;;4984190;28;20207;-84
2024/03/05 07:07:15;;;;;;;33.07;30.07;;;11.20;34.20;;;;;;4982042;28;20175;-85
2024/03/05 07:09:54;;;;;;;34.43;31.43;;;11.30;33.70;;;;;;4987181;28;20422;-87
2024/03/05 07:12:20;;;;;;;33.13;30.07;;;11.50;32.90;;;;;;5007359;28;20424;-84
2024/03/05 07:14:45;;;;;;;32.97;29.73;;;11.50;32.80;;;;;;4984664;28;20449;-83
2024/03/05 07:17:11;;;;;;;33.90;30.70;;;11.50;32.80;;;;;;4999530;28;20185;-84
2024/03/05 07:19:37;;;;;;;35.20;31.73;;;11.50;32.50;;;;;;5001343;28;20221;-83
2024/03/05 07:22:05;;;;;;;33.27;30.17;;;11.60;32.90;;;;;;4992874;28;20195;-83
2024/03/05 07:24:31;;;;;;;32.77;29.87;;;11.50;32.60;;;;;;4997671;28;20429;-83
2024/03/05 07:26:57;;;;;;;34.13;31.13;;;11.50;32.40;;;;;;4994614;28;20406;-84
2024/03/05 07:29:25;;;;;;;35.17;32.03;;;11.60;32.30;;;;;;4990039;28;20425;-84
2024/03/05 07:31:51;;;;;;;33.17;30.17;;;11.60;32.20;;;;;;4988434;28;20182;-84
2024/03/05 07:34:16;;;;;;;31.70;28.83;;;11.60;32.00;;;;;;5002998;28;20436;-84
2024/03/05 07:36:43;;;;;;;34.90;31.80;;;11.50;32.00;;;;;;4998126;28;20182;-84
2024/03/05 07:39:11;;;;;;;34.50;31.30;;;11.50;32.00;;;;;;5003443;28;20174;-83
2024/03/05 07:41:39;;;;;;;34.20;31.20;;;11.40;32.30;;;;;;5000108;28;20425;-83
2024/03/05 07:44:14;;;;;;;35.50;32.00;;;11.30;32.60;;;;;;4993575;28;20451;-84
2024/03/05 07:46:48;;;;;;;35.93;32.53;;;11.30;32.70;;;;;;4989167;28;20456;-83
2024/03/05 07:49:28;;;;;;;;;;;;;;;;;;;;;
2024/03/05 07:52:09;;;;;;;33.30;30.40;;;11.30;33.10;;;;;;5000158;28;20524;-83
2024/03/05 07:54:57;;;;;;;;;;;;;;;;;;;;;
2024/03/05 07:57:34;;;;;;;30.07;27.13;;;11.40;32.20;;;;;;4995821;28;20465;-83
2024/03/05 08:00:30;;;;;;;31.47;28.77;;;11.50;31.70;;;;;;4996749;28;20437;-84
2024/03/05 08:02:57;;;;;;;30.67;28.07;;;11.50;31.30;;;;;;4991037;28;20924;-84
2024/03/05 08:05:23;;;;;;;34.00;31.10;;;11.50;31.70;;;;;;4991734;28;20442;-83
2024/03/05 08:07:54;;;;;;;31.67;28.73;;;11.50;31.70;;;;;;4986606;28;20469;-82
2024/03/05 08:10:26;;;;;;;32.80;29.90;;;11.50;31.90;;;;;;4986507;28;20178;-82
2024/03/05 08:13:01;;;;;;;30.67;27.87;;;11.50;32.00;;;;;;4973495;28;20427;-82
2024/03/05 08:15:29;;;;;;;30.10;27.50;;;11.50;32.20;;;;;;5016103;28;20452;-84
2024/03/05 08:17:56;;;;;;;31.77;29.07;;;11.50;32.10;;;;;;4964117;28;20949;-81
2024/03/05 08:20:26;;;;;;;31.43;28.63;;;11.50;32.40;;;;;;4991114;28;20432;-82
2024/03/05 08:22:56;;;;;;;34.90;31.70;;;11.50;32.30;;;;;;4994344;28;20465;-81
2024/03/05 08:25:23;;;;;;;33.00;30.03;;;11.50;32.40;;;;;;4983156;28;20443;-83
2024/03/05 08:28:03;;;;;;;33.30;30.33;;;11.60;32.60;;;;;;4992580;28;20417;-83
2024/03/05 08:30:31;;;;;;;32.70;29.67;;;11.60;32.40;;;;;;4991386;28;20426;-83
2024/03/05 08:32:57;;;;;;;32.80;29.80;;;11.50;32.80;;;;;;4997840;28;20440;-83
2024/03/05 08:35:22;;;;;;;33.93;30.93;;;11.50;32.80;;;;;;4990814;28;20442;-82
2024/03/05 08:37:49;;;;;;;33.73;30.63;;;11.50;32.80;;;;;;4997498;28;20424;-83
2024/03/05 08:40:19;;;;;;;34.13;31.03;;;11.50;32.80;;;;;;4994360;28;20192;-83
2024/03/05 08:42:47;;;;;;;33.60;30.43;;;11.50;32.80;;;;;;4995432;28;20457;-83
2024/03/05 08:45:19;;;;;;;33.23;30.33;;;11.50;33.10;;;;;;5000527;28;20912;-82
2024/03/05 08:47:47;;;;;;;33.57;30.57;;;11.50;34.10;;;;;;4997007;28;20425;-82
2024/03/05 08:50:14;;;;;;;32.77;29.67;;;11.50;32.80;;;;;;4991756;28;20449;-82
2024/03/05 08:52:40;;;;;;;35.10;31.80;;;11.40;33.40;;;;;;4994275;28;20873;-83
2024/03/05 08:55:08;;;;;;;32.77;29.87;;;11.40;33.70;;;;;;4986030;28;20790;-83
2024/03/05 08:57:36;;;;;;;29.73;27.07;;;11.40;34.50;;;;;;4987376;28;20417;-83
2024/03/05 09:00:03;;;;;;;28.90;26.40;;;11.40;33.50;;;;;;4989312;28;20484;-83
2024/03/05 09:02:29;;;;;;;24.20;22.40;;;11.40;33.60;;;;;;4994704;28;20517;-83
2024/03/05 09:04:54;;;;;;;24.00;22.07;;;11.40;33.50;;;;;;4988391;28;20433;-83
2024/03/05 09:07:20;;;;;;;22.33;20.67;;;11.40;33.40;;;;;;4987845;28;20406;-84
2024/03/05 09:09:49;;;;;;;22.63;20.97;;;11.40;33.00;;;;;;4983474;28;20173;-83
2024/03/05 09:12:15;;;;;;;21.80;20.30;;;11.40;32.70;;;;;;4996478;28;20178;-83
2024/03/05 09:14:42;;;;;;;21.00;19.40;;;11.30;32.60;;;;;;5036958;23;20625;-79
2024/03/05 09:17:09;;;;;;;21.20;19.70;;;11.20;32.90;;;;;;5017097;28;20189;-78
2024/03/05 09:19:35;;;;;;;20.70;19.30;;;11.20;32.90;;;;;;5017348;28;20432;-80
2024/03/05 09:22:04;;;;;;;20.57;19.07;;;11.10;33.10;;;;;;5036151;28;20711;-78
2024/03/05 09:24:30;;;;;;;21.30;19.50;;;11.10;33.10;;;;;;5033241;28;20442;-79
2024/03/05 09:26:56;;;;;;;21.03;19.60;;;11.10;33.60;;;;;;5030360;28;20451;-77
2024/03/05 09:29:21;;;;;;;21.03;19.43;;;10.80;35.50;;;;;;5025332;28;20479;-78
2024/03/05 09:31:46;;;;;;;18.77;17.57;;;10.70;35.20;;;;;;5025971;28;20376;-78
2024/03/05 09:34:12;;;;;;;20.30;19.00;;;10.60;35.70;;;;;;5027699;28;20208;-78
2024/03/05 09:36:39;;;;;;;18.70;17.50;;;10.60;36.60;;;;;;5027741;28;20193;-80
2024/03/05 09:39:09;;;;;;;18.83;17.63;;;10.70;35.70;;;;;;5036169;28;20184;-79
2024/03/05 09:41:40;;;;;;;18.50;17.23;;;10.80;35.10;;;;;;5027173;28;20431;-78
2024/03/05 09:44:07;;;;;;;19.43;18.03;;;10.90;34.60;;;;;;5019715;28;20479;-79
2024/03/05 09:46:36;;;;;;;19.43;17.97;;;11.00;34.20;;;;;;5028257;28;20903;-79
2024/03/05 09:49:03;;;;;;;18.60;17.27;;;11.10;33.60;;;;;;5019591;28;20526;-78
2024/03/05 09:51:29;;;;;;;17.27;15.77;;;11.10;33.10;;;;;;5023568;28;20439;-78
2024/03/05 09:53:56;;;;;;;19.37;17.97;;;11.20;33.10;;;;;;5025429;28;20448;-79
2024/03/05 09:56:22;;;;;;;18.30;17.00;;;11.20;32.50;;;;;;5019296;28;20441;-79
2024/03/05 09:58:48;;;;;;;18.27;16.87;;;11.20;32.70;;;;;;5031573;28;20475;-79
2024/03/05 10:01:14;;;;;;;16.83;15.73;;;11.20;32.50;;;;;;5022658;28;20189;-78
2024/03/05 10:03:40;;;;;;;15.47;14.40;;;11.20;32.70;;;;;;5024639;28;20209;-79
2024/03/05 10:06:09;;;;;;;14.60;13.70;;;11.30;31.90;;;;;;5030585;28;20506;-79
2024/03/05 10:08:35;;;;;;;14.67;13.87;;;11.20;32.50;;;;;;5022950;28;20447;-79
2024/03/05 10:11:03;;;;;;;14.80;14.00;;;11.10;32.10;;;;;;5022688;28;20503;-79
2024/03/05 10:13:35;;;;;;;15.17;14.17;;;11.10;32.50;;;;;;5034557;28;20485;-78
2024/03/05 10:16:17;;;;;;;14.63;13.63;;;11.10;32.50;;;;;;5027139;28;20489;-78
2024/03/05 10:18:46;;;;;;;14.97;14.07;;;11.20;32.50;;;;;;5018578;28;20799;-79
2024/03/05 10:21:21;;;;;;;14.87;14.00;;;11.20;32.50;;;;;;5024168;28;20467;-79
2024/03/05 10:23:55;;;;;;;12.60;11.80;;;11.30;32.70;;;;;;5023080;28;20545;-79
2024/03/05 10:26:27;;;;;;;13.87;13.03;;;11.30;31.90;;;;;;5030424;28;20447;-79
2024/03/05 10:29:10;;;;;;;13.10;12.30;;;11.30;31.40;;;;;;5032041;28;20436;-79
2024/03/05 10:31:42;;;;;;;13.37;12.47;;;11.30;31.60;;;;;;5026396;28;20432;-79
2024/03/05 10:34:08;;;;;;;14.13;13.23;;;11.30;31.40;;;;;;5036508;28;20459;-79
2024/03/05 10:36:38;;;;;;;14.10;13.20;;;11.40;31.10;;;;;;5030416;28;20439;-80
2024/03/05 10:39:08;;;;;;;12.63;11.70;;;11.40;31.10;;;;;;5043298;28;20459;-79
2024/03/05 10:41:37;;;;;;;12.17;11.47;;;11.40;31.30;;;;;;5032930;28;20440;-78
2024/03/05 10:44:05;;;;;;;12.97;12.10;;;11.40;31.20;;;;;;5033125;28;20606;-78
2024/03/05 10:46:32;;;;;;;12.00;11.30;;;11.30;31.70;;;;;;5028678;28;20450;-80
2024/03/05 10:48:59;;;;;;;12.50;11.80;;;11.30;31.50;;;;;;5035861;28;20452;-80
2024/03/05 10:51:28;;;;;;;12.03;11.10;;;11.40;31.00;;;;;;5039089;28;20431;-80
2024/03/05 10:53:59;;;;;;;13.00;12.20;;;11.40;30.60;;;;;;5036178;28;20465;-81
2024/03/05 10:56:25;;;;;;;12.57;11.90;;;11.30;31.60;;;;;;5043077;28;20445;-78
2024/03/05 11:01:38;;;;;;;14.27;13.37;;;11.30;30.80;;;;;;5019788;28;20454;-79
2024/03/05 11:04:21;;;;;;;13.60;12.80;;;11.30;31.10;;;;;;5030818;28;20610;-80
2024/03/05 11:06:52;;;;;;;13.37;12.50;;;11.30;31.00;;;;;;5025925;28;20428;-78
2024/03/05 11:09:19;;;;;;;13.60;12.70;;;11.20;31.30;;;;;;5042386;28;20446;-79
2024/03/05 11:12:09;;;;;;;11.77;11.07;;;11.10;32.00;;;;;;5039785;28;20430;-78
2024/03/05 11:14:37;;;;;;;12.70;12.00;;;11.10;31.20;;;;;;5049969;28;20550;-80
2024/03/05 11:17:09;;;;;;;12.27;11.57;;;11.10;30.50;;;;;;5050012;28;20450;-80
2024/03/05 11:19:54;;;;;;;12.90;12.20;;;11.10;30.80;;;;;;5045038;28;20415;-79
2024/03/05 11:22:24;;;;;;;12.70;12.00;;;11.00;32.40;;;;;;5033876;28;20474;-79
2024/03/05 11:24:59;;;;;;;12.37;11.67;;;11.00;32.10;;;;;;5026116;28;20451;-80
2024/03/05 11:27:27;;;;;;;11.60;10.80;;;11.00;31.30;;;;;;5035869;28;20461;-78
2024/03/05 11:30:16;;;;;;;10.40;9.80;;;11.10;30.80;;;;;;5048236;28;20423;-79
2024/03/05 11:32:43;;;;;;;10.10;9.60;;;11.10;30.70;;;;;;5031131;28;20450;-79
2024/03/05 11:35:11;;;;;;;11.63;10.77;;;11.10;29.70;;;;;;5046401;28;20450;-79
2024/03/05 11:37:54;;;;;;;13.00;12.20;;;11.10;29.40;;;;;;5042794;28;20428;-80
2024/03/05 11:40:27;;;;;;;12.10;11.50;;;11.20;29.50;;;;;;5033927;28;20420;-78
2024/03/05 11:42:53;;;;;;;11.93;11.07;;;11.30;29.00;;;;;;5035864;28;20459;-79
2024/03/05 11:45:48;;;;;;;11.00;10.30;;;11.20;29.20;;;;;;5042563;28;20432;-79
2024/03/05 11:48:20;;;;;;;12.83;11.97;;;11.20;30.10;;;;;;5032537;28;20788;-78
2024/03/05 11:50:47;;;;;;;10.80;10.30;;;11.20;28.90;;;;;;5033546;28;20490;-78
2024/03/05 11:53:13;;;;;;;10.90;10.40;;;11.20;28.70;;;;;;5029420;28;20408;-79
2024/03/05 11:55:39;;;;;;;11.77;11.17;;;11.20;28.40;;;;;;5034768;28;20508;-79
2024/03/05 11:58:10;;;;;;;13.37;12.67;;;10.80;30.00;;;;;;5042291;28;20427;-79
2024/03/05 12:00:36;;;;;;;12.70;12.00;;;10.90;29.90;;;;;;5042760;28;20903;-79
2024/03/05 12:03:09;;;;;;;10.27;9.87;;;10.90;28.30;;;;;;5035104;28;20518;-79
2024/03/05 12:05:34;;;;;;;9.80;9.40;;;11.00;28.50;;;;;;5038194;28;20444;-79
2024/03/05 12:08:02;;;;;;;10.00;9.50;;;11.00;28.30;;;;;;5023722;28;20420;-80
2024/03/05 12:10:34;;;;;;;9.73;9.33;;;10.90;29.00;;;;;;5030300;28;20187;-78
2024/03/05 12:13:00;;;;;;;8.83;8.43;;;11.00;27.90;;;;;;5031257;28;20771;-78
2024/03/05 12:15:31;;;;;;;9.03;8.63;;;10.90;28.20;;;;;;5030229;28;20462;-78
2024/03/05 12:17:57;;;;;;;9.27;8.67;;;11.00;27.50;;;;;;5023568;28;20421;-78
2024/03/05 12:20:23;;;;;;;8.90;8.50;;;11.00;28.30;;;;;;5027094;28;20823;-78
2024/03/05 12:22:52;;;;;;;7.97;7.67;;;11.10;27.90;;;;;;5029521;28;20485;-78
2024/03/05 12:25:26;;;;;;;9.33;8.93;;;11.10;26.70;;;;;;5029922;28;20448;-77
2024/03/05 12:27:53;;;;;;;8.53;8.00;;;10.90;27.50;;;;;;5035009;28;20487;-78
2024/03/05 12:30:19;;;;;;;10.13;9.63;;;11.00;27.60;;;;;;5026016;28;20428;-78
2024/03/05 12:32:52;;;;;;;10.00;9.50;;;11.00;27.80;;;;;;5028379;28;20435;-79
2024/03/05 12:35:20;;;;;;;9.23;8.93;;;11.10;27.20;;;;;;5030267;28;20530;-78
2024/03/05 12:37:48;;;;;;;8.33;8.03;;;11.20;26.40;;;;;;5032170;28;20438;-78
2024/03/05 12:40:15;;;;;;;8.90;8.50;;;11.20;27.50;;;;;;5038891;28;20462;-79
2024/03/05 12:42:51;;;;;;;12.07;11.30;;;11.20;27.20;;;;;;5033921;28;20547;-78
2024/03/05 12:45:20;;;;;;;9.27;8.87;;;11.30;26.80;;;;;;5034985;28;20802;-80
2024/03/05 12:47:59;;;;;;;9.90;9.50;;;11.30;27.40;;;;;;5037870;28;20557;-79
2024/03/05 12:50:24;;;;;;;9.60;9.20;;;11.30;26.00;;;;;;5037772;28;20799;-79
2024/03/05 12:53:00;;;;;;;9.70;9.40;;;11.20;26.80;;;;;;5038356;28;20426;-79
2024/03/05 12:55:27;;;;;;;9.57;9.17;;;11.10;27.90;;;;;;5029629;28;20267;-79
2024/03/05 12:58:06;;;;;;;9.60;9.20;;;11.00;27.40;;;;;;5014096;28;20482;-78
2024/03/05 13:00:35;;;;;;;9.30;8.90;;;11.10;25.70;;;;;;5011982;28;20833;-78
2024/03/05 13:03:05;;;;;;;9.37;9.00;;;11.10;25.90;;;;;;5011460;28;20452;-78
2024/03/05 13:05:35;;;;;;;9.53;9.13;;;11.10;26.80;;;;;;5011903;28;20436;-77
2024/03/05 13:08:01;;;;;;;9.40;9.10;;;11.00;26.50;;;;;;5012225;28;20934;-77
2024/03/05 13:10:27;;;;;;;9.93;9.53;;;11.10;26.80;;;;;;5021101;28;20420;-78
2024/03/05 13:12:53;;;;;;;10.33;9.83;;;11.00;26.60;;;;;;5011474;28;20423;-78
2024/03/05 13:15:19;;;;;;;9.60;9.00;;;11.00;26.80;;;;;;5017084;28;20455;-77
2024/03/05 13:17:45;;;;;;;9.27;8.87;;;10.90;26.70;;;;;;5013481;28;20416;-78
2024/03/05 13:20:18;;;;;;;8.20;7.90;;;10.90;26.70;;;;;;5013796;28;20420;-76
2024/03/05 13:23:03;;;;;;;8.33;7.93;;;10.80;26.90;;;;;;5012470;28;20475;-80
2024/03/05 13:25:30;;;;;;;8.80;8.50;;;10.60;25.70;;;;;;5028092;28;20451;-79
2024/03/05 13:27:55;;;;;;;8.40;8.10;;;10.60;26.20;;;;;;5026615;28;20419;-76
2024/03/05 13:30:21;;;;;;;8.60;8.30;;;10.80;25.30;;;;;;5026343;28;20459;-79
2024/03/05 13:32:48;;;;;;;7.90;7.70;;;11.00;23.10;;;;;;5039689;28;20176;-78
2024/03/05 13:35:15;;;;;;;7.97;7.77;;;11.20;22.10;;;;;;5039228;28;20427;-78
2024/03/05 13:37:42;;;;;;;7.73;7.53;;;11.30;21.50;;;;;;5036841;28;20404;-78
2024/03/05 13:40:11;;;;;;;7.97;7.77;;;11.40;21.70;;;;;;5027634;28;20423;-79
2024/03/05 13:42:40;;;;;;;7.67;7.47;;;11.40;21.40;;;;;;5034889;28;20459;-79
2024/03/05 13:45:15;;;;;;;7.53;7.33;;;11.40;21.60;;;;;;5028615;28;20439;-78
2024/03/05 13:47:42;;;;;;;8.23;7.93;;;11.50;21.20;;;;;;5035145;28;20407;-80
2024/03/05 13:50:10;;;;;;;8.30;7.90;;;11.40;22.00;;;;;;5041057;28;20479;-79
2024/03/05 13:52:39;;;;;;;9.40;9.10;;;11.50;21.30;;;;;;5040683;28;20966;-78
2024/03/05 13:55:05;;;;;;;9.80;9.40;;;11.50;21.30;;;;;;5038678;28;20488;-78
2024/03/05 13:57:31;;;;;;;9.10;8.70;;;11.60;21.10;;;;;;5037983;28;20498;-80
2024/03/05 13:59:56;;;;;;;8.80;8.50;;;11.70;21.30;;;;;;5040191;28;20447;-79
2024/03/05 14:02:22;;;;;;;8.87;8.57;;;11.70;21.30;;;;;;5038222;28;20208;-79
2024/03/05 14:04:47;;;;;;;7.50;7.30;;;11.60;21.70;;;;;;5040227;28;20703;-79
2024/03/05 14:07:15;;;;;;;8.50;8.20;;;11.40;22.10;;;;;;5033794;28;20181;-79
2024/03/05 14:09:43;;;;;;;8.40;8.10;;;11.50;22.10;;;;;;5038346;28;20259;-78
2024/03/05 14:12:10;;;;;;;8.50;8.10;;;11.60;22.20;;;;;;5036976;28;20751;-78
2024/03/05 14:14:35;;;;;;;8.47;8.10;;;11.70;21.40;;;;;;5031599;28;20460;-78
2024/03/05 14:17:01;;;;;;;8.30;8.00;;;11.80;21.10;;;;;;5039305;28;20408;-79
2024/03/05 14:19:26;;;;;;;8.73;8.37;;;11.80;21.00;;;;;;5034822;28;20666;-78
2024/03/05 14:21:52;;;;;;;8.67;8.37;;;11.80;21.10;;;;;;5031374;28;20233;-79
2024/03/05 14:24:18;;;;;;;8.90;8.60;;;11.80;21.40;;;;;;5034814;28;20198;-79
2024/03/05 14:26:44;;;;;;;7.60;7.30;;;11.80;22.20;;;;;;5031398;28;20568;-79
2024/03/05 14:29:09;;;;;;;7.97;7.77;;;11.90;21.70;;;;;;5033222;28;20454;-78
2024/03/05 14:31:36;;;;;;;7.90;7.53;;;11.90;20.80;;;;;;5019291;28;20185;-77
2024/03/05 14:34:02;;;;;;;7.40;7.20;;;11.90;20.10;;;;;;5034283;28;20219;-79
2024/03/05 14:36:28;;;;;;;7.30;7.10;;;11.90;20.40;;;;;;5030992;28;20456;-78
2024/03/05 14:38:53;;;;;;;8.10;7.90;;;11.90;20.40;;;;;;5016725;28;20170;-76
2024/03/05 14:41:19;;;;;;;7.63;7.40;;;11.90;20.20;;;;;;5029844;28;20589;-80
2024/03/05 14:43:44;;;;;;;8.20;8.00;;;11.90;20.10;;;;;;5034302;28;20229;-79
2024/03/05 14:46:10;;;;;;;8.17;7.97;;;11.90;20.40;;;;;;5022280;28;20659;-79
2024/03/05 14:48:36;;;;;;;8.50;8.20;;;11.90;20.60;;;;;;5031037;28;20192;-79
2024/03/05 14:51:05;;;;;;;8.00;7.80;;;11.90;20.70;;;;;;5025301;28;20978;-78
2024/03/05 14:53:31;;;;;;;8.20;7.90;;;11.80;20.90;;;;;;5028539;28;20419;-78
2024/03/05 14:55:56;;;;;;;7.77;7.43;;;11.90;20.80;;;;;;5021595;28;20993;-78
2024/03/05 14:58:23;;;;;;;7.63;7.43;;;11.90;20.70;;;;;;5023179;28;20584;-78
2024/03/05 15:00:49;;;;;;;7.50;7.20;;;11.90;20.70;;;;;;5018875;28;20179;-78
2024/03/05 15:03:17;;;;;;;8.33;8.03;;;11.90;20.90;;;;;;5034286;28;20462;-79
2024/03/05 15:05:43;;;;;;;7.50;7.20;;;11.90;20.70;;;;;;5038212;28;20169;-79
2024/03/05 15:08:09;;;;;;;8.37;8.07;;;11.90;20.80;;;;;;5036825;28;20422;-79
2024/03/05 15:10:35;;;;;;;8.47;8.07;;;11.90;20.20;;;;;;5041086;28;20694;-79
2024/03/05 15:13:00;;;;;;;8.20;7.93;;;11.90;20.50;;;;;;5028307;28;20506;-79
2024/03/05 15:15:38;;;;;;;7.97;7.73;;;11.80;20.90;;;;;;5033889;22;20260;-84
2024/03/05 15:18:40;;;;;;;7.53;7.33;;;11.90;20.40;;;;;;5016271;28;20188;-85
2024/03/05 15:21:29;;;;;;;7.77;7.57;;;12.00;20.00;;;;;;5008648;28;20432;-84
2024/03/05 15:24:37;;;;;;;7.97;7.57;;;11.90;19.90;;;;;;4994075;28;20837;-84
2024/03/05 15:27:23;;;;;;;7.37;7.17;;;11.90;19.60;;;;;;4991035;28;20434;-84
2024/03/05 15:29:53;;;;;;;7.73;7.53;;;11.90;19.70;;;;;;4988956;28;20790;-84
2024/03/05 15:32:36;;;;;;;8.47;8.17;;;11.90;19.80;;;;;;4975200;28;20441;-84
2024/03/05 15:35:28;;;;;;;8.67;8.30;;;11.80;20.00;;;;;;4979811;28;20878;-84
2024/03/05 15:38:07;;;;;;;7.23;7.03;;;11.60;20.70;;;;;;4984978;28;20262;-84
2024/03/05 15:40:37;;;;;;;7.83;7.63;;;11.70;20.90;;;;;;4991709;28;20468;-84
2024/03/05 15:43:03;;;;;;;7.40;7.10;;;11.70;20.60;;;;;;4991646;28;20499;-84
2024/03/05 15:45:30;;;;;;;7.37;7.17;;;11.70;20.10;;;;;;4993441;28;20442;-84
2024/03/05 15:47:56;;;;;;;7.93;7.70;;;11.80;19.90;;;;;;4998473;28;20940;-84
2024/03/05 15:50:24;;;;;;;7.47;7.17;;;11.80;19.70;;;;;;4992820;28;20954;-84
2024/03/05 15:52:55;;;;;;;7.73;7.43;;;11.70;20.30;;;;;;4992759;28;20430;-84
2024/03/05 15:55:28;;;;;;;7.27;7.00;;;11.80;19.80;;;;;;4991392;28;21003;-83
2024/03/05 15:58:07;;;;;;;7.90;7.60;;;11.80;19.90;;;;;;4990450;28;20429;-83
2024/03/05 16:00:35;;;;;;;7.93;7.63;;;11.80;19.90;;;;;;4977804;28;20449;-85
2024/03/05 16:03:09;;;;;;;7.80;7.50;;;11.80;20.00;;;;;;4978062;28;20572;-84
2024/03/05 16:05:36;;;;;;;8.00;7.60;;;11.80;19.90;;;;;;4994161;28;20441;-84
2024/03/05 16:08:04;;;;;;;7.47;7.20;;;11.80;19.60;;;;;;4989982;28;20432;-84
2024/03/05 16:10:33;;;;;;;9.40;9.00;;;11.90;19.20;;;;;;4996469;28;20516;-84
2024/03/05 16:12:59;;;;;;;7.07;6.87;;;11.90;19.20;;;;;;4977902;28;20442;-84
2024/03/05 16:15:26;;;;;;;10.27;9.60;;;11.90;19.30;;;;;;4991977;28;20500;-85
2024/03/05 16:17:55;;;;;;;7.07;6.87;;;11.90;19.50;;;;;;4997717;28;20846;-84
2024/03/05 16:20:24;;;;;;;6.90;6.60;;;11.90;19.30;;;;;;4995134;28;20504;-84
2024/03/05 16:22:52;;;;;;;7.00;6.60;;;11.90;19.20;;;;;;4993699;28;20479;-84